createdAt,value
2022-09-20T16:40:55.651Z,0.70
2022-09-20T16:43:26.389Z,0.68
2022-09-20T16:46:02.327Z,0.60
2022-09-20T16:48:31.180Z,0.90
2022-09-20T16:50:59.084Z,0.52
2022-09-20T16:53:25.834Z,0.60
2022-09-20T16:55:55.732Z,0.57
2022-09-20T16:58:29.703Z,0.60
2022-09-20T17:01:06.379Z,0.55
2022-09-20T17:03:34.081Z,0.45
2022-09-20T17:06:05.331Z,0.80
2022-09-20T17:08:38.685Z,0.40
2022-09-20T17:11:19.440Z,0.50
2022-09-20T17:13:47.214Z,0.50
2022-09-20T17:16:15.741Z,0.40
2022-09-20T17:18:43.299Z,0.40
2022-09-20T17:21:16.796Z,0.50
2022-09-20T17:23:50.047Z,0.60
2022-09-20T17:26:19.946Z,0.50
2022-09-20T17:28:47.345Z,0.50
2022-09-20T17:31:17.814Z,0.70
2022-09-20T17:33:45.756Z,0.75
2022-09-20T17:36:13.609Z,0.47
2022-09-20T17:38:40.499Z,0.50
2022-09-20T17:41:13.780Z,0.50
2022-09-20T17:43:43.189Z,0.52
2022-09-20T17:46:13.715Z,0.60
2022-09-20T17:48:48.957Z,0.68
2022-09-20T17:51:17.113Z,0.65
2022-09-20T17:53:43.720Z,0.40
2022-09-20T17:56:13.084Z,0.50
2022-09-20T17:58:39.891Z,0.70
2022-09-20T18:01:12.477Z,0.80
2022-09-20T18:03:40.419Z,1.05
2022-09-20T18:06:20.454Z,1.13
2022-09-20T18:08:50.998Z,0.80
2022-09-20T18:11:23.242Z,0.77
2022-09-20T18:13:49.875Z,1.05
2022-09-20T18:16:18.803Z,0.50
2022-09-20T18:18:46.380Z,0.93
2022-09-20T18:21:15.970Z,0.60
2022-09-20T18:23:43.335Z,0.40
2022-09-20T18:26:23.711Z,0.60
2022-09-20T18:28:58.282Z,0.60
2022-09-20T18:31:32.385Z,0.45
2022-09-20T18:34:00.610Z,0.45
2022-09-20T18:36:28.383Z,0.70
2022-09-20T18:38:55.470Z,0.70
2022-09-20T18:41:24.804Z,0.65
2022-09-20T18:43:52.881Z,0.55
2022-09-20T18:46:25.389Z,0.95
2022-09-20T18:48:55.189Z,0.70
2022-09-20T18:51:21.937Z,0.68
2022-09-20T18:53:48.537Z,0.75
2022-09-20T18:56:27.536Z,0.68
2022-09-20T18:59:01.974Z,0.60
2022-09-20T19:02:05.372Z,0.98
2022-09-20T19:04:51.779Z,0.80
2022-09-20T19:07:27.529Z,0.82
2022-09-20T19:10:03.172Z,0.90
2022-09-20T19:12:57.299Z,1.35
2022-09-20T19:15:41.893Z,6.43
2022-09-20T19:18:44.020Z,4.97
2022-09-20T19:21:10.515Z,6.30
2022-09-20T19:24:03.253Z,3.97
2022-09-20T19:26:37.921Z,2.88
2022-09-20T19:29:31.525Z,2.40
2022-09-20T19:31:59.014Z,1.95
2022-09-20T19:34:27.343Z,1.90
2022-09-20T19:36:57.198Z,1.90
2022-09-20T19:39:44.925Z,2.28
2022-09-20T19:42:50.985Z,2.33
2022-09-20T19:45:38.392Z,2.08
2022-09-20T19:48:04.905Z,1.77
2022-09-20T19:50:49.601Z,2.08
2022-09-20T19:53:17.409Z,2.15
2022-09-20T19:55:50.343Z,2.10
2022-09-20T19:58:17.181Z,2.08
2022-09-20T20:00:44.675Z,2.20
2022-09-20T20:03:14.989Z,1.92
2022-09-20T20:05:57.925Z,2.13
2022-09-20T20:08:54.961Z,2.05
2022-09-20T20:11:53.832Z,2.15
2022-09-20T20:14:26.441Z,2.08
2022-09-20T20:17:06.215Z,2.40
2022-09-20T20:19:41.815Z,2.20
2022-09-20T20:22:18.833Z,2.50
2022-09-20T20:24:52.680Z,2.25
2022-09-20T20:27:19.824Z,2.15
2022-09-20T20:29:46.469Z,2.47
2022-09-20T20:32:13.125Z,2.45
2022-09-20T20:34:39.738Z,2.88
2022-09-20T20:37:06.814Z,2.50
2022-09-20T20:39:35.603Z,2.40
2022-09-20T20:42:02.760Z,2.55
2022-09-20T20:44:38.207Z,2.38
2022-09-20T20:47:05.925Z,1.80
2022-09-20T20:49:32.766Z,1.80
2022-09-20T20:52:04.033Z,2.50
2022-09-20T20:54:32.923Z,2.10
2022-09-20T20:56:59.564Z,2.80
2022-09-20T20:59:26.359Z,2.47
2022-09-20T21:01:53.012Z,2.28
2022-09-20T21:04:19.982Z,2.33
2022-09-20T21:06:46.594Z,2.30
2022-09-20T21:09:13.521Z,2.40
2022-09-20T21:11:48.334Z,2.47
2022-09-20T21:14:15.758Z,2.25
2022-09-20T21:16:42.999Z,2.50
2022-09-20T21:19:10.431Z,2.05
2022-09-20T21:21:38.730Z,2.38
2022-09-20T21:24:06.830Z,2.30
2022-09-20T21:26:34.213Z,1.97
2022-09-20T21:29:05.338Z,2.00
2022-09-20T21:31:33.789Z,2.00
2022-09-20T21:34:00.459Z,1.87
2022-09-20T21:36:28.586Z,1.75
2022-09-20T21:38:55.267Z,2.00
2022-09-20T21:41:23.371Z,2.20
2022-09-20T21:43:55.170Z,2.25
2022-09-20T21:46:21.805Z,2.25
2022-09-20T21:48:48.831Z,2.23
2022-09-20T21:51:18.146Z,2.00
2022-09-20T21:53:45.113Z,2.30
2022-09-20T21:56:13.449Z,2.00
2022-09-20T21:58:40.369Z,2.00
2022-09-20T22:01:11.859Z,1.55
2022-09-20T22:03:40.203Z,1.67
2022-09-20T22:06:17.324Z,1.50
2022-09-20T22:08:51.569Z,1.53
2022-09-20T22:11:19.091Z,1.20
2022-09-20T22:13:46.918Z,1.42
2022-09-20T22:16:15.231Z,1.50
2022-09-20T22:18:42.853Z,1.73
2022-09-20T22:21:12.113Z,1.30
2022-09-20T22:23:38.907Z,1.60
2022-09-20T22:26:13.354Z,1.63
2022-09-20T22:28:40.123Z,1.53
2022-09-20T22:31:14.676Z,1.40
2022-09-20T22:33:43.343Z,1.50
2022-09-20T22:36:11.059Z,1.53
2022-09-20T22:38:37.703Z,1.90
2022-09-20T22:41:04.389Z,1.60
2022-09-20T22:43:32.243Z,1.67
2022-09-20T22:46:06.138Z,1.60
2022-09-20T22:48:33.188Z,1.53
2022-09-20T22:51:04.222Z,1.30
2022-09-20T22:53:30.997Z,1.53
2022-09-20T22:56:04.719Z,1.70
2022-09-20T22:58:35.613Z,1.77
2022-09-20T23:01:06.872Z,1.30
2022-09-20T23:03:33.512Z,1.50
2022-09-20T23:06:00.086Z,1.37
2022-09-20T23:08:26.745Z,1.60
2022-09-20T23:11:03.579Z,2.00
2022-09-20T23:13:30.253Z,1.53
2022-09-20T23:15:56.833Z,1.70
2022-09-20T23:18:23.591Z,1.60
2022-09-20T23:21:00.449Z,1.60
2022-09-20T23:23:27.613Z,1.80
2022-09-20T23:25:55.164Z,1.60
2022-09-20T23:28:23.008Z,1.80
2022-09-20T23:30:52.049Z,1.80
2022-09-20T23:33:18.627Z,1.70
2022-09-20T23:35:45.520Z,1.47
2022-09-20T23:38:12.400Z,1.67
2022-09-20T23:40:41.534Z,1.60
2022-09-20T23:43:08.115Z,1.70
2022-09-20T23:45:34.719Z,1.70
2022-09-20T23:48:01.495Z,1.60
2022-09-20T23:50:28.122Z,1.57
2022-09-20T23:52:54.684Z,1.77
2022-09-20T23:55:21.254Z,1.47
2022-09-20T23:57:48.368Z,1.63
